地図

経路データ

SID SEASON NUMBER BASIN SUBBASIN NAME ISO_TIME NATURE LAT LON WMO_WIND WMO_PRES WMO_AGENCY TRACK_TYPE DIST2LAND LANDFALL IFLAG USA_AGENCY USA_ATCF_ID USA_LAT USA_LON USA_RECORD USA_STATUS USA_WIND USA_PRES USA_SSHS USA_R34_NE USA_R34_SE USA_R34_SW USA_R34_NW USA_R50_NE USA_R50_SE USA_R50_SW USA_R50_NW USA_R64_NE USA_R64_SE USA_R64_SW USA_R64_NW USA_POCI USA_ROCI USA_RMW USA_EYE TOKYO_LAT TOKYO_LON TOKYO_GRADE TOKYO_WIND TOKYO_PRES TOKYO_R50_DIR TOKYO_R50_LONG TOKYO_R50_SHORT TOKYO_R30_DIR TOKYO_R30_LONG TOKYO_R30_SHORT TOKYO_LAND CMA_LAT CMA_LON CMA_CAT CMA_WIND CMA_PRES HKO_LAT HKO_LON HKO_CAT HKO_WIND HKO_PRES NEWDELHI_LAT NEWDELHI_LON NEWDELHI_GRADE NEWDELHI_WIND NEWDELHI_PRES NEWDELHI_CI NEWDELHI_DP NEWDELHI_POCI REUNION_LAT REUNION_LON REUNION_TYPE REUNION_WIND REUNION_PRES REUNION_TNUM REUNION_CI REUNION_RMW REUNION_R34_NE REUNION_R34_SE REUNION_R34_SW REUNION_R34_NW REUNION_R50_NE REUNION_R50_SE REUNION_R50_SW REUNION_R50_NW REUNION_R64_NE REUNION_R64_SE REUNION_R64_SW REUNION_R64_NW BOM_LAT BOM_LON BOM_TYPE BOM_WIND BOM_PRES BOM_TNUM BOM_CI BOM_RMW BOM_R34_NE BOM_R34_SE BOM_R34_SW BOM_R34_NW BOM_R50_NE BOM_R50_SE BOM_R50_SW BOM_R50_NW BOM_R64_NE BOM_R64_SE BOM_R64_SW BOM_R64_NW BOM_ROCI BOM_POCI BOM_EYE BOM_POS_METHOD BOM_PRES_METHOD NADI_LAT NADI_LON NADI_CAT NADI_WIND NADI_PRES WELLINGTON_LAT WELLINGTON_LON WELLINGTON_WIND WELLINGTON_PRES DS824_LAT DS824_LON DS824_STAGE DS824_WIND DS824_PRES TD9636_LAT TD9636_LON TD9636_STAGE TD9636_WIND TD9636_PRES TD9635_LAT TD9635_LON TD9635_WIND TD9635_PRES TD9635_ROCI NEUMANN_LAT NEUMANN_LON NEUMANN_CLASS NEUMANN_WIND NEUMANN_PRES MLC_LAT MLC_LON MLC_CLASS MLC_WIND MLC_PRES USA_GUST BOM_GUST BOM_GUST_PER REUNION_GUST REUNION_GUST_PER USA_SEAHGT USA_SEARAD_NE USA_SEARAD_SE USA_SEARAD_SW USA_SEARAD_NW STORM_SPEED STORM_DIR
1987279N12256 1987 85 EP MM RAMON 1987-10-05 18:00:00 TS 12.2000 -104.200 35 hurdat_epa main 661 661 O_________O___ hurdat_epa EP171987 12.2000 -104.200 TS 35 0 12.2000 -104.200 0 35 7 277
1987279N12256 1987 85 EP MM RAMON 1987-10-05 21:00:00 TS 12.2408 -104.532 main 677 673 P_________P___ EP171987 12.2400 -104.530 TS 35 0 12.2432 -104.536 0 35 7 278
1987279N12256 1987 85 EP MM RAMON 1987-10-06 00:00:00 TS 12.3000 -104.900 35 hurdat_epa main 683 683 O_________O___ hurdat_epa EP171987 12.3000 -104.900 TS 35 0 12.3000 -104.900 2 35 8 281
1987279N12256 1987 85 EP MM RAMON 1987-10-06 03:00:00 TS 12.3895 -105.329 main 687 687 P_________P___ EP171987 12.3925 -105.335 TS 35 0 12.3804 -105.311 2 35 9 283
1987279N12256 1987 85 EP MM RAMON 1987-10-06 06:00:00 TS 12.4949 -105.790 35 hurdat_epa main 694 691 O_________P___ hurdat_epa EP171987 12.5000 -105.800 TS 35 0 12.4796 -105.759 2 35 9 283
1987279N12256 1987 85 EP MM RAMON 1987-10-06 09:00:00 TS 12.5972 -106.244 main 700 700 P_________P___ EP171987 12.5999 -106.250 TS 35 0 12.5889 -106.228 2 35 9 283
1987279N12256 1987 85 EP MM RAMON 1987-10-06 12:00:00 TS 12.7000 -106.700 35 hurdat_epa main 714 714 O_________O___ hurdat_epa EP171987 12.7000 -106.700 TS 35 0 12.7000 -106.700 2 35 9 283
1987279N12256 1987 85 EP MM RAMON 1987-10-06 15:00:00 TS 12.7979 -107.155 main 732 732 P_________P___ EP171987 12.7999 -107.150 TS 35 0 12.7919 -107.170 2 37 9 282
1987279N12256 1987 85 EP MM RAMON 1987-10-06 18:00:00 TS 12.8963 -107.609 35 hurdat_epa main 747 747 O_________P___ hurdat_epa EP171987 12.9000 -107.600 TS 35 0 12.8850 -107.638 2 40 9 282
1987279N12256 1987 85 EP MM RAMON 1987-10-06 21:00:00 TS 12.9908 -108.070 main 771 771 P_________P___ EP171987 12.9925 -108.065 TS 40 0 12.9857 -108.086 2 42 9 283
1987279N12256 1987 85 EP MM RAMON 1987-10-07 00:00:00 TS 13.1000 -108.500 45 hurdat_epa main 788 788 O_________O___ hurdat_epa EP171987 13.1000 -108.500 TS 45 0 13.1000 -108.500 2 45 8 288
1987279N12256 1987 85 EP MM RAMON 1987-10-07 03:00:00 TS 13.2406 -108.868 main 801 792 P_________P___ EP171987 13.2424 -108.873 TS 50 0 13.2352 -108.853 2 50 7 294
1987279N12256 1987 85 EP MM RAMON 1987-10-07 06:00:00 TS 13.3961 -109.193 55 hurdat_epa main 801 798 O_________P___ hurdat_epa EP171987 13.4000 -109.200 TS 55 0 13.3844 -109.173 2 55 7 296
1987279N12256 1987 85 EP MM RAMON 1987-10-07 09:00:00 TS 13.5421 -109.490 main 811 802 P_________P___ EP171987 13.5424 -109.493 TS 60 0 13.5414 -109.481 2 60 7 297
1987279N12256 1987 85 EP MM RAMON 1987-10-07 12:00:00 TS 13.7000 -109.800 65 hurdat_epa main 814 812 O_________O___ hurdat_epa EP171987 13.7000 -109.800 HU 65 1 13.7000 -109.800 3 65 8 297
1987279N12256 1987 85 EP MM RAMON 1987-10-07 15:00:00 TS 13.8952 -110.188 main 826 825 P_________P___ EP171987 13.9075 -110.192 HU 70 1 13.8582 -110.173 3 68 9 296
1987279N12256 1987 85 EP MM RAMON 1987-10-07 18:00:00 TS 14.0788 -110.589 75 hurdat_epa main 840 840 O_________P___ hurdat_epa EP171987 14.1000 -110.600 HU 75 1 14.0151 -110.557 3 72 8 292
1987279N12256 1987 85 EP MM RAMON 1987-10-07 21:00:00 TS 14.1967 -110.964 main 863 863 P_________P___ EP171987 14.2075 -110.973 HU 77 1 14.1644 -110.938 3 76 7 288
1987279N12256 1987 85 EP MM RAMON 1987-10-08 00:00:00 TS 14.3000 -111.300 80 hurdat_epa main 878 878 O_________O___ hurdat_epa EP171987 14.3000 -111.300 HU 80 1 14.3000 -111.300 4 80 6 293
1987279N12256 1987 85 EP MM RAMON 1987-10-08 03:00:00 TS 14.4476 -111.567 main 894 886 P_________P___ EP171987 14.4574 -111.550 HU 80 1 14.4181 -111.618 4 83 6 299
1987279N12256 1987 85 EP MM RAMON 1987-10-08 06:00:00 TS 14.5805 -111.829 80 hurdat_epa main 895 895 O_________P___ hurdat_epa EP171987 14.6000 -111.800 HU 80 1 14.5221 -111.915 4 87 6 290
1987279N12256 1987 85 EP MM RAMON 1987-10-08 09:00:00 TS 14.6525 -112.158 main 921 921 P_________P___ EP171987 14.6650 -112.143 HU 87 2 14.6150 -112.205 4 91 7 280
1987279N12256 1987 85 EP MM RAMON 1987-10-08 12:00:00 TS 14.7000 -112.500 95 hurdat_epa main 947 947 O_________O___ hurdat_epa EP171987 14.7000 -112.500 HU 95 2 14.7000 -112.500 4 95 6 279
1987279N12256 1987 85 EP MM RAMON 1987-10-08 15:00:00 TS 14.7523 -112.805 main 952 952 P_________P___ EP171987 14.7424 -112.800 HU 97 3 14.7821 -112.818 4 98 6 281
1987279N12256 1987 85 EP MM RAMON 1987-10-08 18:00:00 TS 14.8143 -113.111 100 hurdat_epa main 962 959 O_________P___ hurdat_epa EP171987 14.8000 -113.100 HU 100 3 14.8574 -113.143 4 102 6 284
1987279N12256 1987 85 EP MM RAMON 1987-10-08 21:00:00 TS 14.9073 -113.455 main 967 961 P_________P___ EP171987 14.9000 -113.450 HU 105 3 14.9290 -113.471 4 106 7 286
1987279N12256 1987 85 EP MM RAMON 1987-10-09 00:00:00 TS 15.0000 -113.800 110 hurdat_epa main 969 969 O_________O___ hurdat_epa EP171987 15.0000 -113.800 HU 110 3 15.0000 -113.800 4 110 6 283
1987279N12256 1987 85 EP MM RAMON 1987-10-09 03:00:00 TS 15.0521 -114.105 main 973 973 P_________P___ EP171987 15.0499 -114.100 HU 115 4 15.0586 -114.121 4 112 6 280
1987279N12256 1987 85 EP MM RAMON 1987-10-09 06:00:00 TS 15.1049 -114.411 120 hurdat_epa main 987 987 O_________P___ hurdat_epa EP171987 15.1000 -114.400 HU 120 4 15.1198 -114.443 4 115 6 283
1987279N12256 1987 85 EP MM RAMON 1987-10-09 09:00:00 TS 15.1934 -114.749 main 992 992 P_________P___ EP171987 15.1925 -114.742 HU 120 4 15.1961 -114.768 4 117 7 286
1987279N12256 1987 85 EP MM RAMON 1987-10-09 12:00:00 TS 15.3000 -115.100 120 hurdat_epa main 1004 1004 O_________O___ hurdat_epa EP171987 15.3000 -115.100 HU 120 4 15.3000 -115.100 4 120 7 286
1987279N12256 1987 85 EP MM RAMON 1987-10-09 15:00:00 TS 15.3905 -115.446 main 1012 1012 P_________P___ EP171987 15.3774 -115.450 HU 120 4 15.4298 -115.435 4 120 7 288
1987279N12256 1987 85 EP MM RAMON 1987-10-09 18:00:00 TS 15.5224 -115.794 120 hurdat_epa main 1027 1021 O_________P___ hurdat_epa EP171987 15.5000 -115.800 HU 120 4 15.5897 -115.778 4 120 8 298
1987279N12256 1987 85 EP MM RAMON 1987-10-09 21:00:00 TS 15.7461 -116.134 main 1028 1022 P_________P___ EP171987 15.7349 -116.135 HU 120 4 15.7798 -116.132 4 120 8 305
1987279N12256 1987 85 EP MM RAMON 1987-10-10 00:00:00 TS 16.0000 -116.500 120 hurdat_epa main 1029 1027 O_________O___ hurdat_epa EP171987 16.0000 -116.500 HU 120 4 16.0000 -116.500 4 120 9 300
1987279N12256 1987 85 EP MM RAMON 1987-10-10 03:00:00 TS 16.1964 -116.939 main 1040 1040 P_________P___ EP171987 16.1851 -116.950 HU 117 4 16.2302 -116.906 4 118 9 297
1987279N12256 1987 85 EP MM RAMON 1987-10-10 06:00:00 TS 16.4226 -117.381 115 hurdat_epa main 1062 1054 O_________P___ hurdat_epa EP171987 16.4000 -117.400 HU 115 4 16.4903 -117.322 4 117 10 305
1987279N12256 1987 85 EP MM RAMON 1987-10-10 09:00:00 TS 16.7405 -117.750 main 1070 1053 P_________P___ EP171987 16.7273 -117.758 HU 115 4 16.7802 -117.728 4 116 10 315
1987279N12256 1987 85 EP MM RAMON 1987-10-10 12:00:00 TS 17.1000 -118.100 115 hurdat_epa main 1053 1045 O_________O___ hurdat_epa EP171987 17.1000 -118.100 HU 115 4 17.1000 -118.100 4 115 10 314
1987279N12256 1987 85 EP MM RAMON 1987-10-10 15:00:00 TS 17.4414 -118.502 main 1051 1037 P_________P___ EP171987 17.4426 -118.530 HU 112 3 17.4378 -118.419 4 111 10 314
1987279N12256 1987 85 EP MM RAMON 1987-10-10 18:00:00 TS 17.8012 -118.851 110 hurdat_epa main 1044 1018 O_________P___ hurdat_epa EP171987 17.8000 -118.900 HU 110 3 17.8046 -118.703 4 107 9 326
1987279N12256 1987 85 EP MM RAMON 1987-10-10 21:00:00 TS 18.1871 -119.039 main 1018 1001 P_________P___ EP171987 18.1848 -119.065 HU 105 3 18.1941 -118.960 4 103 9 337
1987279N12256 1987 85 EP MM RAMON 1987-10-11 00:00:00 TS 18.6000 -119.200 100 hurdat_epa main 1001 985 O_________O___ hurdat_epa EP171987 18.6000 -119.200 HU 100 3 18.6000 -119.200 4 100 10 334
1987279N12256 1987 85 EP MM RAMON 1987-10-11 03:00:00 TS 19.0412 -119.481 main 993 972 P_________P___ EP171987 19.0501 -119.500 HU 90 2 19.0144 -119.424 4 93 10 329
1987279N12256 1987 85 EP MM RAMON 1987-10-11 06:00:00 TS 19.4855 -119.759 80 hurdat_epa main 981 962 O_________P___ hurdat_epa EP171987 19.5000 -119.800 HU 80 1 19.4420 -119.636 4 87 9 334
1987279N12256 1987 85 EP MM RAMON 1987-10-11 09:00:00 TS 19.8877 -119.921 main 962 951 P_________P___ EP171987 19.8923 -119.943 HU 77 1 19.8737 -119.855 4 81 9 338
1987279N12256 1987 85 EP MM RAMON 1987-10-11 12:00:00 TS 20.3000 -120.100 75 hurdat_epa main 953 939 O_________O___ hurdat_epa EP171987 20.3000 -120.100 HU 75 1 20.3000 -120.100 4 75 10 333
1987279N12256 1987 85 EP MM RAMON 1987-10-11 15:00:00 TS 20.8074 -120.418 main 939 924 P_________P___ EP171987 20.8151 -120.427 HU 60 0 20.7843 -120.391 4 62 12 327
1987279N12256 1987 85 EP MM RAMON 1987-10-11 18:00:00 TS 21.2875 -120.778 45 hurdat_epa main 924 911 O_________P___ hurdat_epa EP171987 21.3000 -120.800 TS 45 0 21.2500 -120.711 4 50 11 324
1987279N12256 1987 85 EP MM RAMON 1987-10-11 21:00:00 TS 21.6607 -121.088 main 909 907 P_________P___ EP171987 21.6674 -121.100 TS 35 0 21.6406 -121.051 4 37 8 317
1987279N12256 1987 85 EP MM RAMON 1987-10-12 00:00:00 TS 21.9000 -121.400 25 hurdat_epa main 914 913 O_________O___ hurdat_epa EP171987 21.9000 -121.400 TD 25 -1 21.9000 -121.400 1 25 7 299
1987279N12256 1987 85 EP MM RAMON 1987-10-12 03:00:00 TS 21.9919 -121.741 main 928 928 P_________P___ EP171987 21.9902 -121.738 TD 22 -1 21.9970 -121.750 1 22 7 279
1987279N12256 1987 85 EP MM RAMON 1987-10-12 06:00:00 TS 22.0000 -122.100 20 hurdat_epa main 957 O_________O___ hurdat_epa EP171987 22.0000 -122.100 TD 20 -1 22.0000 -122.100 1 20 7 271

IBTrACS Databaseについて

本データベースは、米国NOAAが公開する1842年以降の世界の熱帯低気圧のベストトラックデータアーカイブInternational Best Track Archive for Climate Stewardship (IBTrACS)を、ウェブで閲覧しやすい形式に変換したものです。

最終更新日:2021-11-26